createdAt,value
2022-12-20T00:01:49.959Z,101355.81
2022-12-20T00:06:46.522Z,101352.91
2022-12-20T00:11:42.973Z,101342.13
2022-12-20T00:16:39.476Z,101337.47
2022-12-20T00:21:36.691Z,101345.91
2022-12-20T00:26:34.335Z,101331.69
2022-12-20T00:31:32.122Z,101330.75
2022-12-20T00:36:30.264Z,101324.63
2022-12-20T00:41:29.120Z,101340.00
2022-12-20T00:46:26.335Z,101334.31
2022-12-20T00:51:30.070Z,101317.41
2022-12-20T00:56:26.506Z,101325.03
2022-12-20T01:01:25.456Z,101321.53
2022-12-20T01:06:23.383Z,101310.22
2022-12-20T01:11:31.116Z,101300.78
2022-12-20T01:16:32.978Z,101306.00
2022-12-20T01:21:29.449Z,101320.25
2022-12-20T01:26:28.514Z,101321.88
2022-12-20T01:31:25.487Z,101313.81
2022-12-20T01:36:24.988Z,101306.00
2022-12-20T01:41:22.549Z,101316.31
2022-12-20T01:46:20.981Z,101316.06
2022-12-20T01:51:18.010Z,101291.41
2022-12-20T01:56:14.934Z,101297.97
2022-12-20T02:01:11.311Z,101291.66
2022-12-20T02:06:15.998Z,101289.72
2022-12-20T02:11:19.775Z,101280.78
2022-12-20T02:16:23.406Z,101298.97
2022-12-20T02:21:46.582Z,101296.03
2022-12-20T02:27:08.900Z,101278.41
2022-12-20T02:32:19.393Z,101275.47
2022-12-20T02:37:15.936Z,101278.66
2022-12-20T02:42:14.379Z,101274.75
2022-12-20T02:47:14.402Z,101251.59
2022-12-20T02:52:13.093Z,101260.97
2022-12-20T02:57:23.011Z,101256.34
2022-12-20T03:02:19.940Z,101249.91
2022-12-20T03:07:17.528Z,101250.41
2022-12-20T03:12:16.033Z,101242.25
2022-12-20T03:17:12.805Z,101247.22
2022-12-20T03:22:09.207Z,101246.91
2022-12-20T03:27:05.922Z,101257.44
2022-12-20T03:32:02.397Z,101252.56
2022-12-20T03:36:59.054Z,101235.81
2022-12-20T03:41:55.593Z,101237.69
2022-12-20T03:46:52.137Z,101246.47
2022-12-20T03:51:48.618Z,101238.44
2022-12-20T03:56:45.119Z,101242.66
2022-12-20T04:01:41.614Z,101225.03
2022-12-20T04:06:38.176Z,101230.97
2022-12-20T04:11:34.611Z,101236.94
2022-12-20T04:16:31.626Z,101227.97
2022-12-20T04:21:33.055Z,101244.41
2022-12-20T04:26:29.857Z,101228.56
2022-12-20T04:31:26.227Z,101239.94
2022-12-20T04:36:22.696Z,101231.28
2022-12-20T04:41:22.496Z,101221.56
2022-12-20T04:46:19.922Z,101220.53
2022-12-20T04:51:17.039Z,101214.47
2022-12-20T04:56:21.753Z,101228.72
2022-12-20T05:01:19.032Z,101218.53
2022-12-20T05:06:16.768Z,101201.59
2022-12-20T05:11:13.855Z,101186.69
2022-12-20T05:16:10.868Z,101176.94
2022-12-20T05:36:46.637Z,101210.50
2022-12-20T05:41:57.030Z,101197.75
2022-12-20T05:46:54.611Z,101159.94
2022-12-20T05:51:51.212Z,101204.84
2022-12-20T05:56:47.681Z,101199.88
2022-12-20T06:01:44.358Z,101188.22
2022-12-20T06:06:40.940Z,101205.88
2022-12-20T06:11:37.673Z,101219.13
2022-12-20T06:16:34.369Z,101214.84
2022-12-20T06:21:32.046Z,101216.09
2022-12-20T06:26:35.806Z,101214.94
2022-12-20T06:31:32.869Z,101227.84
2022-12-20T06:36:29.313Z,101219.91
2022-12-20T06:41:25.861Z,101212.72
2022-12-20T06:46:23.433Z,101207.09
2022-12-20T06:51:21.419Z,101196.47
2022-12-20T06:56:17.913Z,101212.88
2022-12-20T07:01:14.451Z,101213.00
2022-12-20T07:06:10.948Z,101219.16
2022-12-20T07:11:08.062Z,101207.78
2022-12-20T07:16:05.047Z,101216.25
2022-12-20T07:21:03.514Z,101239.19
2022-12-20T07:26:01.068Z,101231.22
2022-12-20T07:31:01.802Z,101215.31
2022-12-20T07:36:05.512Z,101215.16
2022-12-20T07:41:07.511Z,101195.91
2022-12-20T07:46:05.038Z,101191.28
2022-12-20T07:51:07.616Z,101184.75
2022-12-20T07:56:05.068Z,101199.41
2022-12-20T08:01:01.729Z,101198.47
2022-12-20T08:06:00.153Z,101193.84
2022-12-20T08:10:57.707Z,101174.84
2022-12-20T08:15:54.138Z,101183.63
2022-12-20T08:20:50.570Z,101191.50
2022-12-20T08:25:47.270Z,101185.28
2022-12-20T08:30:43.818Z,101169.44
2022-12-20T08:35:40.337Z,101169.53
2022-12-20T08:40:36.775Z,101170.97
2022-12-20T08:45:33.212Z,101165.88
2022-12-20T08:50:29.740Z,101160.97
2022-12-20T08:55:29.458Z,101162.63
2022-12-20T09:00:26.230Z,101156.44
2022-12-20T09:05:22.745Z,101149.94
2022-12-20T09:10:19.249Z,101130.19
2022-12-20T09:15:15.831Z,101136.16
2022-12-20T09:20:12.401Z,101145.75
2022-12-20T09:25:09.073Z,101148.81
2022-12-20T09:30:06.215Z,101161.56
2022-12-20T09:35:03.244Z,101149.13
2022-12-20T09:40:01.744Z,101147.84
2022-12-20T09:45:06.522Z,101156.13
2022-12-20T09:50:04.504Z,101155.97
2022-12-20T09:55:01.022Z,101151.22
2022-12-20T10:00:00.274Z,101149.22
2022-12-20T10:04:57.044Z,101140.34
2022-12-20T10:09:59.641Z,101139.78
2022-12-20T10:15:14.228Z,101127.22
2022-12-20T10:20:22.608Z,101119.91
2022-12-20T10:25:23.922Z,101116.91
2022-12-20T10:30:24.727Z,101115.75
2022-12-20T10:35:31.379Z,101098.69
2022-12-20T10:40:53.740Z,101084.38
2022-12-20T10:46:02.440Z,101087.88
2022-12-20T10:51:16.154Z,101091.03
2022-12-20T10:56:23.065Z,101080.31
2022-12-20T11:01:20.881Z,101059.97
2022-12-20T11:06:18.672Z,101066.44
2022-12-20T11:11:17.038Z,101059.63
2022-12-20T11:16:35.317Z,101054.00
2022-12-20T11:21:50.426Z,101044.78
2022-12-20T11:27:03.283Z,101046.41
2022-12-20T11:32:30.979Z,101042.03
2022-12-20T11:37:34.093Z,101022.50
2022-12-20T11:42:44.796Z,101018.69
2022-12-20T11:48:03.593Z,100999.69
2022-12-20T11:53:05.660Z,101001.56
2022-12-20T11:58:27.744Z,101001.19
2022-12-20T12:03:32.862Z,100993.88
2022-12-20T12:08:40.824Z,101003.44
2022-12-20T12:13:40.556Z,101001.44
2022-12-20T12:18:40.095Z,100986.75
2022-12-20T12:23:45.553Z,100998.59
2022-12-20T12:28:41.971Z,100991.47
2022-12-20T12:33:52.674Z,100991.38
2022-12-20T12:39:01.858Z,100989.03
2022-12-20T12:44:32.854Z,100974.66
2022-12-20T12:49:30.638Z,100963.78
2022-12-20T12:54:36.563Z,100956.56
2022-12-20T12:59:32.959Z,100957.41
2022-12-20T13:04:55.554Z,100947.84
2022-12-20T13:09:52.010Z,100946.31
2022-12-20T13:14:49.962Z,100937.69
2022-12-20T13:19:52.551Z,100927.56
2022-12-20T13:25:00.578Z,100934.38
2022-12-20T13:35:02.887Z,100884.56
2022-12-20T13:39:59.868Z,100938.47
2022-12-20T13:44:57.104Z,100918.69
2022-12-20T13:49:53.974Z,100956.41
2022-12-20T13:54:54.483Z,100940.31
2022-12-20T14:00:00.198Z,100923.34
2022-12-20T14:05:04.124Z,100947.53
2022-12-20T14:10:03.773Z,100915.41
2022-12-20T14:15:02.727Z,100973.81
2022-12-20T14:20:07.683Z,100926.91
2022-12-20T14:25:14.983Z,100914.81
2022-12-20T14:30:28.347Z,100957.09
2022-12-20T14:35:25.136Z,100926.09
2022-12-20T14:40:22.799Z,100941.47
2022-12-20T14:50:38.340Z,100944.97
2022-12-20T14:55:39.440Z,100901.47
2022-12-20T15:00:36.354Z,100906.59
2022-12-20T15:05:36.405Z,100925.34
2022-12-20T15:10:34.162Z,100937.13
2022-12-20T15:15:37.288Z,100937.78
2022-12-20T15:20:33.822Z,100934.38
2022-12-20T15:25:36.626Z,100927.81
2022-12-20T16:03:41.517Z,100901.28
2022-12-20T17:05:51.859Z,100914.25
2022-12-20T17:16:02.725Z,100879.94
2022-12-20T17:31:34.010Z,100893.66
2022-12-20T17:36:37.467Z,100887.59
2022-12-20T17:41:35.287Z,100889.00
2022-12-20T17:46:32.048Z,100893.06
2022-12-20T17:51:30.520Z,100892.97
2022-12-20T18:27:55.697Z,100889.97
2022-12-20T18:38:23.621Z,100898.41
2022-12-20T18:43:20.231Z,100894.16
2022-12-20T18:48:16.714Z,100888.84
2022-12-20T18:53:13.251Z,100897.56
2022-12-20T18:58:09.821Z,100894.50
2022-12-20T19:03:06.310Z,100887.69
2022-12-20T19:08:08.053Z,100887.69
2022-12-20T19:13:06.945Z,100885.22
2022-12-20T19:18:16.804Z,100880.47
2022-12-20T19:23:13.238Z,100891.84
2022-12-20T19:28:09.700Z,100880.56
2022-12-20T19:33:14.461Z,100887.59
2022-12-20T19:38:12.409Z,100879.81
2022-12-20T19:43:09.912Z,100886.09
2022-12-20T19:48:08.392Z,100863.50
2022-12-20T19:53:05.454Z,100879.16
2022-12-20T20:08:25.715Z,100873.63
2022-12-20T20:18:34.992Z,100876.69
2022-12-20T20:23:31.725Z,100866.47
2022-12-20T20:28:32.288Z,100882.88
2022-12-20T20:33:30.789Z,100880.31
2022-12-20T20:38:29.520Z,100884.66
2022-12-20T20:43:26.102Z,100884.78
2022-12-20T20:48:22.524Z,100875.41
2022-12-20T20:53:20.030Z,100879.03
2022-12-20T20:58:16.686Z,100873.06
2022-12-20T21:03:13.306Z,100873.06
2022-12-20T21:08:10.083Z,100885.28
2022-12-20T21:13:06.571Z,100875.63
2022-12-20T21:18:03.083Z,100869.75
2022-12-20T21:23:00.028Z,100874.75
2022-12-20T21:27:57.754Z,100869.53
2022-12-20T21:32:54.193Z,100872.84
2022-12-20T21:37:50.829Z,100881.13
2022-12-20T21:42:47.299Z,100879.22
2022-12-20T21:47:43.755Z,100878.28
2022-12-20T21:52:40.968Z,100855.41
2022-12-20T21:57:37.413Z,100855.50
2022-12-20T22:02:34.910Z,100846.69
2022-12-20T22:07:32.536Z,100855.31
2022-12-20T22:12:28.974Z,100859.88
2022-12-20T22:17:27.181Z,100857.97
2022-12-20T22:22:25.239Z,100851.16
2022-12-20T22:27:21.718Z,100858.16
2022-12-20T22:32:20.168Z,100853.81
2022-12-20T22:37:16.708Z,100863.47
2022-12-20T22:42:13.191Z,100859.22
2022-12-20T22:47:09.638Z,100852.19
2022-12-20T22:52:07.747Z,100867.09
2022-12-20T22:57:04.549Z,100871.44
2022-12-20T23:02:01.733Z,100871.25
2022-12-20T23:06:58.331Z,100865.38
2022-12-20T23:12:13.469Z,100866.44
2022-12-20T23:17:10.375Z,100867.84
2022-12-20T23:22:25.706Z,100858.25
2022-12-20T23:27:22.177Z,100850.19
2022-12-20T23:32:18.697Z,100844.97
2022-12-20T23:37:15.201Z,100839.78
2022-12-20T23:42:11.641Z,100830.84
2022-12-20T23:47:08.110Z,100844.03
2022-12-20T23:52:04.755Z,100839.66
2022-12-20T23:57:01.183Z,100840.63
